createdAt,value
2019-05-16T00:01:12.091Z,8.50
2019-05-16T00:06:17.818Z,8.50
2019-05-16T00:11:21.636Z,8.50
2019-05-16T00:16:25.529Z,8.50
2019-05-16T00:21:29.177Z,8.40
2019-05-16T00:26:33.113Z,8.50
2019-05-16T00:31:38.205Z,8.50
2019-05-16T00:36:42.050Z,8.50
2019-05-16T00:41:47.776Z,8.60
2019-05-16T00:46:51.584Z,8.40
2019-05-16T00:51:55.478Z,8.30
2019-05-16T00:57:00.500Z,8.40
2019-05-16T01:02:04.152Z,8.20
2019-05-16T01:07:08.337Z,8.30
2019-05-16T01:12:12.261Z,8.30
2019-05-16T01:17:18.130Z,8.30
2019-05-16T01:22:21.539Z,8.20
2019-05-16T01:27:27.707Z,8.00
2019-05-16T01:32:32.148Z,8.10
2019-05-16T01:37:38.118Z,8.10
2019-05-16T01:42:41.377Z,8.00
2019-05-16T01:47:45.061Z,8.10
2019-05-16T01:52:48.938Z,8.00
2019-05-16T01:57:52.642Z,8.00
2019-05-16T02:02:57.914Z,8.00
2019-05-16T02:08:01.725Z,7.90
2019-05-16T02:13:05.638Z,7.90
2019-05-16T02:18:09.519Z,7.90
2019-05-16T02:23:13.205Z,7.80
2019-05-16T02:28:16.861Z,7.80
2019-05-16T02:33:21.470Z,7.90
2019-05-16T02:38:25.637Z,7.90
2019-05-16T02:43:31.281Z,7.90
2019-05-16T02:48:35.384Z,7.80
2019-05-16T02:53:41.529Z,7.70
2019-05-16T02:58:45.169Z,7.60
2019-05-16T03:03:51.590Z,7.60
2019-05-16T03:08:54.926Z,7.60
2019-05-16T03:14:00.622Z,7.60
2019-05-16T03:19:04.706Z,7.50
2019-05-16T03:24:10.978Z,7.60
2019-05-16T03:29:13.852Z,7.60
2019-05-16T03:34:24.205Z,7.60
2019-05-16T03:39:22.899Z,7.50
2019-05-16T03:44:26.874Z,7.40
2019-05-16T03:49:31.394Z,7.40
2019-05-16T03:54:35.222Z,7.40
2019-05-16T03:59:40.815Z,7.50
2019-05-16T04:04:44.258Z,7.40
2019-05-16T04:09:50.643Z,7.40
2019-05-16T04:14:53.432Z,7.50
2019-05-16T04:19:57.367Z,7.30
2019-05-16T04:25:01.994Z,7.30
2019-05-16T04:30:06.321Z,7.40
2019-05-16T04:35:11.253Z,7.40
2019-05-16T04:40:15.509Z,7.40
2019-05-16T04:45:21.179Z,7.30
2019-05-16T04:50:24.804Z,7.30
2019-05-16T04:55:31.595Z,7.40
2019-05-16T05:00:34.307Z,7.30
2019-05-16T05:05:41.252Z,7.60
2019-05-16T05:10:43.605Z,7.50
2019-05-16T05:15:47.384Z,7.70
2019-05-16T05:20:52.229Z,7.80
2019-05-16T05:25:56.707Z,7.70
2019-05-16T05:31:00.377Z,7.80
2019-05-16T05:36:04.057Z,7.80
2019-05-16T05:41:07.740Z,7.70
2019-05-16T05:46:11.438Z,7.70
2019-05-16T05:51:15.114Z,7.70
2019-05-16T05:56:19.716Z,7.80
2019-05-16T06:01:23.534Z,7.90
2019-05-16T06:06:27.450Z,8.00
2019-05-16T06:11:31.143Z,8.10
2019-05-16T06:16:34.850Z,8.10
2019-05-16T06:21:43.641Z,8.30
2019-05-16T06:26:44.268Z,8.30
2019-05-16T06:31:49.644Z,8.20
2019-05-16T06:36:53.686Z,8.40
2019-05-16T06:41:57.414Z,8.40
2019-05-16T06:47:15.816Z,8.40
2019-05-16T06:52:07.010Z,8.40
2019-05-16T06:57:10.780Z,8.40
2019-05-16T07:02:26.715Z,8.30
2019-05-16T07:07:20.588Z,8.30
2019-05-16T07:12:24.654Z,8.20
2019-05-16T07:17:30.515Z,8.30
2019-05-16T07:22:34.063Z,8.40
2019-05-16T07:27:39.891Z,8.50
2019-05-16T07:32:43.242Z,8.70
2019-05-16T07:37:49.817Z,8.70
2019-05-16T07:42:53.293Z,8.80
2019-05-16T07:47:56.977Z,8.70
2019-05-16T07:53:01.062Z,8.70
2019-05-16T07:58:05.168Z,8.90
2019-05-16T08:03:10.553Z,8.90
2019-05-16T08:08:14.615Z,9.20
2019-05-16T08:13:20.799Z,9.10
2019-05-16T08:18:23.752Z,9.10
2019-05-16T08:23:29.756Z,9.10
2019-05-16T08:28:33.165Z,9.60
2019-05-16T08:33:36.906Z,10.00
2019-05-16T08:38:43.258Z,10.30
2019-05-16T08:43:46.282Z,10.70
2019-05-16T08:48:54.053Z,10.80
2019-05-16T08:53:55.487Z,10.60
2019-05-16T08:59:02.689Z,10.70
2019-05-16T09:04:04.585Z,10.40
2019-05-16T09:09:24.693Z,10.20
2019-05-16T09:14:16.248Z,10.10
2019-05-16T09:19:19.320Z,10.50
2019-05-16T09:24:23.018Z,10.50
2019-05-16T09:29:27.402Z,10.40
2019-05-16T09:34:31.274Z,10.60
2019-05-16T09:39:37.037Z,10.40
2019-05-16T09:44:40.602Z,10.40
2019-05-16T09:49:53.662Z,10.30
2019-05-16T09:54:57.866Z,10.50
2019-05-16T10:00:01.681Z,11.20
2019-05-16T10:05:12.388Z,11.70
2019-05-16T10:10:11.541Z,12.40
2019-05-16T10:15:17.624Z,12.40
2019-05-16T10:20:21.561Z,12.80
2019-05-16T10:25:27.617Z,12.80
2019-05-16T10:30:30.612Z,12.60
2019-05-16T10:35:36.998Z,12.90
2019-05-16T10:40:39.773Z,13.10
2019-05-16T10:45:43.505Z,12.90
2019-05-16T10:50:47.911Z,12.70
2019-05-16T10:55:52.011Z,12.40
2019-05-16T11:01:15.671Z,12.40
2019-05-16T11:06:06.094Z,12.30
2019-05-16T11:11:06.814Z,11.90
2019-05-16T11:16:10.800Z,11.80
2019-05-16T11:21:18.978Z,11.60
2019-05-16T11:26:20.439Z,11.60
2019-05-16T11:31:26.506Z,11.70
2019-05-16T11:36:29.930Z,12.20
2019-05-16T11:41:33.598Z,12.80
2019-05-16T11:46:37.672Z,12.90
2019-05-16T11:51:41.392Z,12.90
2019-05-16T11:56:46.415Z,12.80
2019-05-16T12:01:50.223Z,12.60
2019-05-16T12:06:53.952Z,12.80
2019-05-16T12:12:03.543Z,12.90
2019-05-16T12:17:03.051Z,13.00
2019-05-16T12:22:07.148Z,13.30
2019-05-16T12:27:10.934Z,13.40
2019-05-16T12:32:16.986Z,13.70
2019-05-16T12:37:20.036Z,14.60
2019-05-16T12:42:23.793Z,15.20
2019-05-16T12:47:27.467Z,15.50
2019-05-16T12:52:31.153Z,15.20
2019-05-16T12:57:38.013Z,15.20
2019-05-16T13:02:40.369Z,15.10
2019-05-16T13:07:44.365Z,14.60
2019-05-16T13:12:48.185Z,14.20
2019-05-16T13:17:52.120Z,13.80
2019-05-16T13:22:56.712Z,13.60
2019-05-16T13:28:00.704Z,13.60
2019-05-16T13:33:06.977Z,13.70
2019-05-16T13:38:09.887Z,13.80
2019-05-16T13:43:13.875Z,14.00
2019-05-16T13:48:17.607Z,14.30
2019-05-16T13:53:21.329Z,14.10
2019-05-16T13:58:28.073Z,14.10
2019-05-16T14:03:30.630Z,13.80
2019-05-16T14:08:37.070Z,13.70
2019-05-16T14:13:40.393Z,13.40
2019-05-16T14:18:46.694Z,13.50
2019-05-16T14:23:53.149Z,13.50
2019-05-16T14:28:57.586Z,13.90
2019-05-16T14:34:00.750Z,14.20
2019-05-16T14:39:06.578Z,14.20
2019-05-16T14:44:10.525Z,14.40
2019-05-16T14:49:17.053Z,14.40
2019-05-16T14:54:19.622Z,13.90
2019-05-16T14:59:23.329Z,13.10
2019-05-16T15:04:30.091Z,13.00
2019-05-16T15:09:32.580Z,13.10
2019-05-16T15:14:37.555Z,13.40
2019-05-16T15:19:41.413Z,13.70
2019-05-16T15:24:45.122Z,14.00
2019-05-16T15:29:50.935Z,14.50
2019-05-16T15:34:56.997Z,14.70
2019-05-16T15:39:59.585Z,14.40
2019-05-16T15:45:03.402Z,14.10
2019-05-16T15:50:08.268Z,13.80
2019-05-16T15:55:12.747Z,13.80
2019-05-16T16:00:20.177Z,14.00
2019-05-16T16:05:26.595Z,14.20
2019-05-16T16:10:37.744Z,14.10
2019-05-16T16:15:50.586Z,14.00
2019-05-16T16:20:47.734Z,14.10
2019-05-16T16:25:51.970Z,13.80
2019-05-16T16:30:56.920Z,13.80
2019-05-16T16:36:00.774Z,13.70
2019-05-16T16:41:04.462Z,13.60
2019-05-16T16:46:13.181Z,13.50
2019-05-16T16:51:17.729Z,13.40
2019-05-16T16:56:20.267Z,13.40
2019-05-16T17:01:27.068Z,13.30
2019-05-16T17:06:29.436Z,13.20
2019-05-16T17:11:33.180Z,13.30
2019-05-16T17:16:37.816Z,13.20
2019-05-16T17:21:50.392Z,13.20
2019-05-16T17:26:47.931Z,13.30
2019-05-16T17:31:56.125Z,13.20
2019-05-16T17:36:57.246Z,13.10
2019-05-16T17:42:00.962Z,13.10
2019-05-16T17:47:07.073Z,13.00
2019-05-16T17:52:10.093Z,12.90
2019-05-16T17:57:14.061Z,12.90
2019-05-16T18:02:18.049Z,12.90
2019-05-16T18:07:21.766Z,12.80
2019-05-16T18:12:27.544Z,12.60
2019-05-16T18:17:31.017Z,12.50
2019-05-16T18:22:36.577Z,12.50
2019-05-16T18:27:40.186Z,12.20
2019-05-16T18:32:43.892Z,12.20
2019-05-16T18:37:47.590Z,12.10
2019-05-16T18:42:52.058Z,12.00
2019-05-16T18:47:56.318Z,11.80
2019-05-16T18:53:00.049Z,11.70
2019-05-16T18:58:05.652Z,11.70
2019-05-16T19:03:09.182Z,11.60
2019-05-16T19:08:13.055Z,11.60
2019-05-16T19:13:16.946Z,11.40
2019-05-16T19:18:20.756Z,11.30
2019-05-16T19:23:26.725Z,11.20
2019-05-16T19:28:30.121Z,11.00
2019-05-16T19:33:33.834Z,10.80
2019-05-16T19:38:38.512Z,10.80
2019-05-16T19:43:42.230Z,10.70
2019-05-16T19:48:48.055Z,10.80
2019-05-16T19:53:51.978Z,10.60
2019-05-16T19:58:57.098Z,10.60
2019-05-16T20:04:00.959Z,10.60
2019-05-16T20:09:07.224Z,10.70
2019-05-16T20:14:11.159Z,10.70
2019-05-16T20:19:14.951Z,10.60
2019-05-16T20:24:18.751Z,10.60
2019-05-16T20:29:22.570Z,10.50
2019-05-16T20:34:26.778Z,10.60
2019-05-16T20:39:30.629Z,10.50
2019-05-16T20:44:34.377Z,10.70
2019-05-16T20:49:38.461Z,10.90
2019-05-16T20:54:42.330Z,10.90
2019-05-16T20:59:48.927Z,11.00
2019-05-16T21:04:52.554Z,10.90
2019-05-16T21:09:58.990Z,10.50
2019-05-16T21:15:03.669Z,10.20
2019-05-16T21:20:08.155Z,10.10
2019-05-16T21:25:12.784Z,9.90
2019-05-16T21:30:19.149Z,9.60
2019-05-16T21:35:22.319Z,9.60
2019-05-16T21:40:26.639Z,9.70
2019-05-16T21:45:30.434Z,9.80
2019-05-16T21:50:36.708Z,9.80
2019-05-16T21:55:40.079Z,9.80
2019-05-16T22:00:47.445Z,9.90
2019-05-16T22:05:50.803Z,10.00
2019-05-16T22:10:57.100Z,10.20
2019-05-16T22:16:00.006Z,10.50
2019-05-16T22:21:03.710Z,10.40
2019-05-16T22:26:07.870Z,10.30
2019-05-16T22:31:11.997Z,10.10
2019-05-16T22:36:17.346Z,10.00
2019-05-16T22:41:21.298Z,10.00
2019-05-16T22:46:26.845Z,10.00
2019-05-16T22:51:30.389Z,10.10
2019-05-16T22:56:34.138Z,10.00
2019-05-16T23:01:37.889Z,9.80
2019-05-16T23:06:41.918Z,9.70
2019-05-16T23:11:45.681Z,9.40
2019-05-16T23:16:49.658Z,9.20
2019-05-16T23:21:53.432Z,9.00
2019-05-16T23:26:57.097Z,8.70
2019-05-16T23:32:00.875Z,8.60
2019-05-16T23:37:06.464Z,8.70
2019-05-16T23:42:10.267Z,9.10
2019-05-16T23:47:16.348Z,9.10
2019-05-16T23:52:19.359Z,9.10
2019-05-16T23:57:23.029Z,9.20
